Terminal Aerodrome Forecast
Issued by NWS Twin Cities, MN

Home | Current Version | Previous Version | Graphics & Text | Print | Product List | Glossary On
Versions: 1 2 3 4 5 6 7 8 9 10 11 12 13 14 15 16 17 18 19 20 21 22 23 24 25 26 27 28 29
000
FTUS43 KMPX 281457 AAA
TAFMSP
TAF AMD
KMSP 281457Z 2815/2918 14012KT 6SM BR OVC007
     FM281800 15012G18KT P6SM OVC009
     FM290000 14005KT 5SM BR OVC008 PROB30 2900/2904 3SM -DZ BR
     FM290400 32008KT P6SM OVC008
     FM290800 31017G24KT P6SM OVC015=

USA.gov is the U.S. government's official web portal to all federal, state and local government web resources and services.